createdAt,value
2022-09-10T00:01:25.684Z,18.30
2022-09-10T00:03:54.797Z,18.30
2022-09-10T00:06:26.236Z,18.30
2022-09-10T00:08:56.285Z,18.20
2022-09-10T00:11:25.857Z,18.20
2022-09-10T00:13:56.260Z,18.20
2022-09-10T00:16:24.558Z,18.20
2022-09-10T00:18:52.629Z,18.20
2022-09-10T00:21:21.884Z,18.20
2022-09-10T00:23:50.567Z,18.10
2022-09-10T00:26:21.906Z,18.10
2022-09-10T00:28:50.772Z,18.10
2022-09-10T00:31:21.896Z,18.10
2022-09-10T00:33:50.722Z,18.00
2022-09-10T00:36:21.680Z,18.00
2022-09-10T00:38:50.572Z,18.00
2022-09-10T00:41:19.872Z,18.00
2022-09-10T00:43:51.317Z,17.90
2022-09-10T00:46:28.120Z,17.90
2022-09-10T00:48:58.971Z,17.90
2022-09-10T00:51:31.116Z,17.80
2022-09-10T00:54:00.124Z,17.80
2022-09-10T00:56:29.487Z,17.80
2022-09-10T00:58:57.969Z,17.80
2022-09-10T01:01:27.573Z,17.80
2022-09-10T01:03:56.919Z,17.80
2022-09-10T01:06:25.250Z,17.80
2022-09-10T01:08:53.660Z,17.80
2022-09-10T01:11:37.859Z,17.90
2022-09-10T01:14:23.082Z,17.90
2022-09-10T01:17:00.074Z,17.90
2022-09-10T01:19:55.016Z,17.90
2022-09-10T01:22:32.603Z,17.90
2022-09-10T01:25:06.770Z,17.90
2022-09-10T01:27:41.272Z,17.80
2022-09-10T01:30:14.746Z,17.80
2022-09-10T01:32:59.304Z,17.80
2022-09-10T01:35:36.136Z,17.80
2022-09-10T01:38:09.402Z,17.80
2022-09-10T01:40:38.945Z,17.80
2022-09-10T01:43:10.862Z,17.80
2022-09-10T01:45:50.996Z,17.80
2022-09-10T01:48:33.933Z,17.70
2022-09-10T01:51:08.936Z,17.70
2022-09-10T01:53:53.284Z,17.60
2022-09-10T01:56:35.749Z,17.60
2022-09-10T01:59:15.184Z,17.60
2022-09-10T02:01:47.678Z,17.50
2022-09-10T02:04:16.989Z,17.50
2022-09-10T02:06:49.036Z,17.40
2022-09-10T02:09:18.049Z,17.50
2022-09-10T02:11:48.514Z,17.40
2022-09-10T02:14:18.515Z,17.40
2022-09-10T02:16:52.576Z,17.40
2022-09-10T02:19:20.840Z,17.40
2022-09-10T02:21:49.458Z,17.40
2022-09-10T02:24:17.749Z,17.50
2022-09-10T02:26:47.320Z,17.40
2022-09-10T02:29:19.397Z,17.40
2022-09-10T02:31:47.714Z,17.40
2022-09-10T02:34:17.058Z,17.40
2022-09-10T02:36:45.096Z,17.40
2022-09-10T02:39:13.127Z,17.40
2022-09-10T02:41:41.600Z,17.40
2022-09-10T02:44:09.923Z,17.40
2022-09-10T02:46:39.408Z,17.40
2022-09-10T02:49:07.863Z,17.40
2022-09-10T02:51:37.064Z,17.30
2022-09-10T02:54:06.671Z,17.30
2022-09-10T02:56:34.739Z,17.30
2022-09-10T02:59:02.800Z,17.30
2022-09-10T03:01:30.879Z,17.30
2022-09-10T03:04:00.307Z,17.30
2022-09-10T03:06:28.893Z,17.30
2022-09-10T03:08:57.685Z,17.30
2022-09-10T03:11:27.435Z,17.20
2022-09-10T03:13:56.276Z,17.20
2022-09-10T03:16:25.052Z,17.20
2022-09-10T03:18:53.198Z,17.20
2022-09-10T03:21:25.346Z,17.20
2022-09-10T03:23:56.872Z,17.10
2022-09-10T03:26:26.376Z,17.20
2022-09-10T03:28:54.722Z,17.10
2022-09-10T03:31:22.895Z,17.10
2022-09-10T03:33:51.179Z,17.10
2022-09-10T03:36:21.013Z,17.10
2022-09-10T03:38:50.796Z,17.10
2022-09-10T03:41:19.042Z,17.10
2022-09-10T03:43:47.113Z,17.00
2022-09-10T03:46:15.894Z,17.00
2022-09-10T03:48:44.423Z,17.00
2022-09-10T03:51:12.501Z,17.00
2022-09-10T03:53:40.968Z,17.00
2022-09-10T03:56:10.976Z,16.90
2022-09-10T03:58:39.356Z,16.90
2022-09-10T04:01:08.165Z,16.90
2022-09-10T04:03:36.237Z,17.00
2022-09-10T04:06:04.398Z,17.00
2022-09-10T04:08:32.434Z,16.90
2022-09-10T04:11:03.578Z,17.00
2022-09-10T04:13:33.939Z,16.90
2022-09-10T04:16:02.754Z,16.90
2022-09-10T04:18:32.169Z,16.90
2022-09-10T04:21:00.275Z,16.80
2022-09-10T04:23:29.604Z,16.80
2022-09-10T04:25:57.678Z,16.90
2022-09-10T04:28:25.989Z,16.80
2022-09-10T04:30:55.440Z,16.80
2022-09-10T04:33:25.081Z,16.90
2022-09-10T04:35:53.131Z,16.90
2022-09-10T04:38:21.211Z,16.80
2022-09-10T04:40:49.266Z,16.90
2022-09-10T04:43:17.415Z,16.90
2022-09-10T04:45:45.603Z,16.90
2022-09-10T04:48:15.108Z,16.90
2022-09-10T04:50:59.295Z,16.90
2022-09-10T04:53:34.483Z,16.80
2022-09-10T04:56:02.808Z,16.90
2022-09-10T04:58:34.280Z,16.80
2022-09-10T05:01:06.223Z,16.80
2022-09-10T05:03:35.879Z,16.80
2022-09-10T05:06:05.031Z,16.80
2022-09-10T05:08:33.104Z,16.80
2022-09-10T05:11:02.954Z,16.80
2022-09-10T05:13:31.889Z,16.80
2022-09-10T05:16:00.284Z,16.80
2022-09-10T05:18:28.533Z,16.80
2022-09-10T05:20:57.963Z,16.90
2022-09-10T05:23:26.333Z,16.90
2022-09-10T05:25:55.276Z,16.80
2022-09-10T05:28:23.297Z,16.90
2022-09-10T05:30:52.006Z,16.90
2022-09-10T05:33:20.161Z,16.90
2022-09-10T05:35:51.805Z,16.90
2022-09-10T05:38:21.743Z,17.00
2022-09-10T05:40:50.508Z,17.00
2022-09-10T05:43:18.560Z,17.00
2022-09-10T05:45:47.274Z,17.00
2022-09-10T05:48:15.398Z,17.10
2022-09-10T05:50:45.598Z,17.10
2022-09-10T05:53:13.876Z,17.10
2022-09-10T05:55:43.986Z,17.20
2022-09-10T05:58:13.653Z,17.20
2022-09-10T06:00:43.222Z,17.20
2022-09-10T06:03:11.945Z,17.30
2022-09-10T06:05:40.084Z,17.40
2022-09-10T06:08:09.150Z,17.40
2022-09-10T06:10:37.398Z,17.50
2022-09-10T06:13:07.222Z,17.50
2022-09-10T06:15:36.620Z,17.60
2022-09-10T06:18:04.953Z,17.60
2022-09-10T06:20:32.992Z,17.60
2022-09-10T06:23:01.020Z,17.70
2022-09-10T06:25:29.296Z,17.70
2022-09-10T06:27:57.359Z,17.70
2022-09-10T06:30:26.922Z,17.80
2022-09-10T06:32:55.070Z,17.80
2022-09-10T06:35:23.301Z,17.90
2022-09-10T06:37:51.351Z,17.90
2022-09-10T06:40:19.744Z,18.00
2022-09-10T06:42:48.562Z,18.00
2022-09-10T06:45:16.692Z,18.00
2022-09-10T06:48:36.633Z,18.00
2022-09-10T06:50:35.416Z,18.10
2022-09-10T06:53:03.435Z,18.10
2022-09-10T06:55:31.669Z,18.20
2022-09-10T06:58:00.944Z,18.20
2022-09-10T07:00:28.973Z,18.20
2022-09-10T07:02:58.412Z,18.30
2022-09-10T07:05:27.581Z,18.30
2022-09-10T07:07:56.105Z,18.30
2022-09-10T07:10:24.325Z,18.40
2022-09-10T07:12:52.403Z,18.40
2022-09-10T07:15:20.530Z,18.40
2022-09-10T07:17:48.581Z,18.40
2022-09-10T07:20:18.151Z,18.50
2022-09-10T07:22:46.430Z,18.60
2022-09-10T07:25:14.572Z,18.60
2022-09-10T07:27:42.624Z,18.70
2022-09-10T07:30:12.213Z,18.70
2022-09-10T07:32:40.582Z,18.70
2022-09-10T07:35:09.293Z,18.80
2022-09-10T07:37:39.760Z,18.80
2022-09-10T07:40:09.262Z,18.90
2022-09-10T07:42:38.125Z,18.90
2022-09-10T07:45:08.172Z,19.00
2022-09-10T07:47:36.223Z,19.00
2022-09-10T07:50:04.520Z,19.10
2022-09-10T07:52:32.845Z,19.10
2022-09-10T07:55:02.281Z,19.10
2022-09-10T07:57:31.573Z,19.20
2022-09-10T08:00:00.806Z,19.20
2022-09-10T08:02:28.896Z,19.20
2022-09-10T08:04:56.972Z,19.30
2022-09-10T08:07:25.041Z,19.30
2022-09-10T08:09:53.213Z,19.40
2022-09-10T08:12:22.667Z,19.40
2022-09-10T08:14:50.888Z,19.40
2022-09-10T08:17:19.297Z,19.40
2022-09-10T08:19:47.442Z,19.50
2022-09-10T08:22:15.807Z,19.50
2022-09-10T08:24:43.898Z,19.60
2022-09-10T08:27:12.153Z,19.60
2022-09-10T08:29:41.572Z,19.60
2022-09-10T08:32:10.272Z,19.70
2022-09-10T08:34:38.346Z,19.70
2022-09-10T08:37:06.615Z,19.70
2022-09-10T08:39:34.696Z,19.80
2022-09-10T08:42:06.462Z,19.80
2022-09-10T08:44:42.213Z,19.80
2022-09-10T08:47:21.519Z,19.90
2022-09-10T08:49:53.224Z,20.00
2022-09-10T08:52:30.132Z,20.00
2022-09-10T08:55:07.844Z,20.00
2022-09-10T08:57:40.766Z,20.10
2022-09-10T09:00:14.091Z,20.10
2022-09-10T09:02:54.255Z,20.10
2022-09-10T09:05:24.016Z,20.20
2022-09-10T09:07:53.127Z,20.20
2022-09-10T09:10:31.649Z,20.20
2022-09-10T09:13:22.408Z,20.20
2022-09-10T09:15:57.786Z,20.30
2022-09-10T09:18:36.110Z,20.30
2022-09-10T09:21:09.341Z,20.30
2022-09-10T09:24:09.342Z,20.30
2022-09-10T09:26:37.513Z,20.40
2022-09-10T09:29:11.831Z,20.40
2022-09-10T09:31:43.775Z,20.50
2022-09-10T09:34:19.315Z,20.60
2022-09-10T09:36:51.037Z,20.70
2022-09-10T09:39:25.789Z,20.70
2022-09-10T09:42:05.833Z,20.70
2022-09-10T09:44:40.008Z,20.80
2022-09-10T09:47:09.114Z,20.90
2022-09-10T09:49:38.690Z,20.90
2022-09-10T09:52:19.629Z,21.00
2022-09-10T09:57:42.834Z,21.10
2022-09-10T10:00:36.443Z,21.20
2022-09-10T10:03:13.504Z,21.40
2022-09-10T10:05:43.969Z,21.50
2022-09-10T10:08:30.183Z,21.70
2022-09-10T10:10:58.777Z,21.90
2022-09-10T10:13:35.972Z,22.10
2022-09-10T10:16:16.301Z,22.10
2022-09-10T10:18:45.328Z,22.20
2022-09-10T10:21:18.290Z,22.20
2022-09-10T10:23:46.723Z,22.10
2022-09-10T10:26:27.735Z,22.10
2022-09-10T10:29:00.193Z,22.00
2022-09-10T10:31:38.691Z,22.00
2022-09-10T10:34:32.532Z,22.00
2022-09-10T10:37:10.140Z,22.10
2022-09-10T10:40:01.067Z,22.20
2022-09-10T10:42:33.298Z,22.30
2022-09-10T10:45:28.478Z,22.40
2022-09-10T10:48:04.342Z,22.50
2022-09-10T10:50:42.742Z,22.50
2022-09-10T10:53:22.520Z,22.50
2022-09-10T10:55:57.187Z,22.50
2022-09-10T10:58:50.139Z,22.60
2022-09-10T11:01:24.073Z,22.50
2022-09-10T11:04:01.079Z,22.50
2022-09-10T11:06:36.047Z,22.60
2022-09-10T11:09:08.632Z,22.60
2022-09-10T11:11:44.699Z,22.70
2022-09-10T11:14:22.720Z,22.90
2022-09-10T11:16:58.472Z,22.90
2022-09-10T11:19:35.689Z,23.00
2022-09-10T11:22:10.809Z,23.10
2022-09-10T11:24:44.678Z,23.20
2022-09-10T11:27:16.730Z,23.30
2022-09-10T11:29:52.475Z,23.30
2022-09-10T11:32:29.516Z,23.40
2022-09-10T11:35:06.767Z,23.40
2022-09-10T11:37:48.370Z,23.50
2022-09-10T11:40:26.059Z,23.50
2022-09-10T11:42:57.780Z,23.60
2022-09-10T11:45:36.301Z,23.60
2022-09-10T11:48:12.486Z,23.60
2022-09-10T11:50:48.038Z,23.60
2022-09-10T11:53:18.377Z,23.60
2022-09-10T11:56:14.640Z,23.60
2022-09-10T11:58:54.307Z,23.60
2022-09-10T12:01:34.716Z,23.60
2022-09-10T12:04:22.314Z,23.50
2022-09-10T12:06:58.979Z,23.50
2022-09-10T12:09:32.196Z,23.40
2022-09-10T12:12:14.016Z,23.40
2022-09-10T12:14:42.583Z,23.40
2022-09-10T12:17:17.506Z,23.40
2022-09-10T12:19:49.170Z,23.40
2022-09-10T12:22:25.541Z,23.50
2022-09-10T12:24:56.518Z,23.60
2022-09-10T12:27:45.640Z,23.60
2022-09-10T12:30:53.970Z,23.80
2022-09-10T12:33:59.462Z,23.80
2022-09-10T12:37:19.873Z,23.80
2022-09-10T12:39:48.615Z,23.90
2022-09-10T12:42:31.124Z,24.00
2022-09-10T12:44:59.392Z,24.20
2022-09-10T12:47:42.171Z,24.00
2022-09-10T12:50:31.458Z,24.00
2022-09-10T12:53:23.395Z,24.20
2022-09-10T12:56:02.262Z,24.30
2022-09-10T12:58:47.332Z,24.50
2022-09-10T13:01:26.506Z,24.60
2022-09-10T13:03:57.468Z,24.70
2022-09-10T13:06:38.298Z,24.90
2022-09-10T13:09:18.565Z,25.10
2022-09-10T13:11:50.711Z,25.30
2022-09-10T13:14:23.127Z,25.50
2022-09-10T13:16:51.294Z,25.70
2022-09-10T13:19:53.304Z,25.80
2022-09-10T13:22:50.331Z,26.00
2022-09-10T13:25:37.067Z,26.10
2022-09-10T13:28:44.431Z,26.10
2022-09-10T13:31:22.356Z,26.10
2022-09-10T13:34:17.961Z,26.20
2022-09-10T13:36:58.851Z,26.20
2022-09-10T13:39:46.148Z,26.30
2022-09-10T13:42:27.063Z,26.40
2022-09-10T13:45:17.403Z,26.40
2022-09-10T13:47:50.404Z,26.60
2022-09-10T13:50:22.054Z,26.60
2022-09-10T13:52:55.071Z,26.70
2022-09-10T13:55:26.585Z,26.80
2022-09-10T13:57:59.111Z,26.80
2022-09-10T14:00:30.233Z,26.80
2022-09-10T14:03:01.693Z,26.70
2022-09-10T14:05:37.007Z,26.60
2022-09-10T14:08:09.107Z,26.50
2022-09-10T14:10:55.137Z,26.60
2022-09-10T14:13:28.981Z,26.50
2022-09-10T14:16:00.749Z,26.30
2022-09-10T14:18:39.485Z,26.10
2022-09-10T14:21:07.808Z,26.00
2022-09-10T14:23:36.428Z,26.00
2022-09-10T14:26:12.784Z,26.00
2022-09-10T14:28:51.625Z,26.00
2022-09-10T14:31:23.146Z,26.10
2022-09-10T14:33:53.137Z,26.10
2022-09-10T14:36:23.762Z,26.10
2022-09-10T14:38:57.548Z,26.10
2022-09-10T14:41:28.076Z,26.20
2022-09-10T14:44:27.635Z,26.20
2022-09-10T14:46:57.619Z,26.30
2022-09-10T14:49:29.341Z,26.30
2022-09-10T14:51:58.540Z,26.30
2022-09-10T14:54:27.256Z,26.20
2022-09-10T14:56:57.460Z,26.10
2022-09-10T14:59:31.345Z,26.10
2022-09-10T15:02:01.370Z,26.10
2022-09-10T15:04:31.787Z,26.00
2022-09-10T15:07:02.765Z,26.00
2022-09-10T15:09:31.693Z,25.90
2022-09-10T15:12:03.479Z,25.80
2022-09-10T15:14:32.524Z,25.80
2022-09-10T15:17:00.717Z,25.80
2022-09-10T15:19:30.458Z,25.80
2022-09-10T15:21:58.875Z,25.80
2022-09-10T15:24:28.375Z,25.80
2022-09-10T15:26:57.588Z,25.80
2022-09-10T15:29:26.249Z,25.80
2022-09-10T15:31:54.374Z,25.80
2022-09-10T15:34:22.432Z,25.70
2022-09-10T15:36:53.306Z,25.60
2022-09-10T15:39:21.393Z,25.70
2022-09-10T15:41:49.411Z,25.70
2022-09-10T15:44:18.416Z,25.80
2022-09-10T15:46:47.166Z,25.80
2022-09-10T15:49:15.320Z,25.90
2022-09-10T15:51:43.379Z,26.10
2022-09-10T15:54:13.120Z,26.10
2022-09-10T15:56:41.657Z,26.20
2022-09-10T15:59:10.315Z,26.20
2022-09-10T16:01:39.556Z,26.30
2022-09-10T16:04:08.061Z,26.30
2022-09-10T16:06:39.333Z,26.30
2022-09-10T16:09:11.205Z,26.30
2022-09-10T16:11:42.661Z,26.20
2022-09-10T16:14:15.829Z,26.20
2022-09-10T16:16:43.999Z,26.20
2022-09-10T16:19:13.196Z,26.20
2022-09-10T16:21:41.272Z,26.20
2022-09-10T16:24:09.380Z,26.10
2022-09-10T16:26:39.720Z,26.10
2022-09-10T16:29:14.247Z,26.10
2022-09-10T16:31:43.067Z,26.10
2022-09-10T16:34:13.500Z,26.10
2022-09-10T16:36:41.622Z,26.20
2022-09-10T16:39:12.893Z,26.10
2022-09-10T16:41:41.925Z,26.10
2022-09-10T16:44:12.659Z,26.00
2022-09-10T16:46:41.094Z,25.80
2022-09-10T16:49:12.528Z,25.70
2022-09-10T16:51:42.221Z,25.60
2022-09-10T16:54:11.121Z,25.40
2022-09-10T16:56:41.105Z,25.20
2022-09-10T16:59:15.137Z,25.00
2022-09-10T17:01:45.123Z,24.90
2022-09-10T17:04:19.258Z,24.70
2022-09-10T17:06:48.963Z,24.60
2022-09-10T17:09:16.992Z,24.50
2022-09-10T17:11:45.031Z,24.30
2022-09-10T17:14:14.455Z,24.20
2022-09-10T17:16:43.663Z,24.00
2022-09-10T17:19:14.178Z,23.90
2022-09-10T17:21:44.527Z,23.80
2022-09-10T17:24:14.133Z,23.70
2022-09-10T17:26:42.830Z,23.60
2022-09-10T17:29:12.678Z,23.50
2022-09-10T17:31:42.718Z,23.50
2022-09-10T17:34:13.247Z,23.40
2022-09-10T17:36:41.984Z,23.30
2022-09-10T17:39:10.340Z,23.20
2022-09-10T17:41:39.661Z,23.10
2022-09-10T17:44:08.387Z,23.00
2022-09-10T17:46:37.147Z,22.90
2022-09-10T17:49:06.931Z,22.90
2022-09-10T17:51:36.115Z,22.80
2022-09-10T17:54:04.293Z,22.80
2022-09-10T17:56:32.907Z,22.70
2022-09-10T17:59:02.832Z,22.60
2022-09-10T18:01:33.080Z,22.50
2022-09-10T18:04:01.335Z,22.30
2022-09-10T18:06:32.366Z,22.20
2022-09-10T18:09:01.927Z,22.10
2022-09-10T18:11:32.293Z,22.00
2022-09-10T18:14:01.353Z,22.00
2022-09-10T18:16:32.204Z,22.00
2022-09-10T18:19:03.301Z,22.00
2022-09-10T18:21:34.200Z,21.90
2022-09-10T18:24:06.536Z,21.90
2022-09-10T18:26:36.550Z,21.80
2022-09-10T18:29:09.092Z,21.80
2022-09-10T18:31:39.144Z,21.70
2022-09-10T18:34:09.426Z,21.70
2022-09-10T18:36:39.208Z,21.70
2022-09-10T18:39:11.058Z,21.70
2022-09-10T18:41:40.372Z,21.60
2022-09-10T18:44:17.503Z,21.60
2022-09-10T18:46:46.755Z,21.60
2022-09-10T18:49:20.795Z,21.60
2022-09-10T18:51:52.245Z,21.60
2022-09-10T18:54:21.712Z,21.50
2022-09-10T18:56:50.600Z,21.50
2022-09-10T18:59:21.226Z,21.50
2022-09-10T19:01:50.524Z,21.40
2022-09-10T19:04:21.645Z,21.40
2022-09-10T19:06:51.455Z,21.40
2022-09-10T19:09:21.246Z,21.30
2022-09-10T19:11:50.896Z,21.30
2022-09-10T19:14:21.297Z,21.30
2022-09-10T19:16:51.155Z,21.30
2022-09-10T19:19:22.218Z,21.30
2022-09-10T19:21:53.532Z,21.30
2022-09-10T19:24:37.626Z,21.20
2022-09-10T19:27:11.738Z,21.20
2022-09-10T19:29:43.118Z,21.10
2022-09-10T19:32:11.435Z,21.10
2022-09-10T19:34:39.888Z,21.00
2022-09-10T19:37:09.843Z,20.90
2022-09-10T19:39:37.958Z,20.90
2022-09-10T19:42:06.983Z,20.90
2022-09-10T19:44:35.280Z,20.80
2022-09-10T19:47:04.706Z,20.80
2022-09-10T19:49:34.194Z,20.70
2022-09-10T19:52:04.347Z,20.70
2022-09-10T19:54:34.559Z,20.70
2022-09-10T19:57:02.663Z,20.60
2022-09-10T19:59:30.791Z,20.60
2022-09-10T20:01:58.907Z,20.50
2022-09-10T20:04:27.770Z,20.40
2022-09-10T20:06:55.881Z,20.40
2022-09-10T20:09:24.256Z,20.40
2022-09-10T20:11:54.139Z,20.40
2022-09-10T20:14:22.480Z,20.30
2022-09-10T20:16:55.761Z,20.30
2022-09-10T20:19:24.095Z,20.20
2022-09-10T20:21:52.175Z,20.20
2022-09-10T20:24:20.333Z,20.20
2022-09-10T20:26:49.116Z,20.10
2022-09-10T20:29:20.594Z,20.10
2022-09-10T20:31:49.424Z,20.10
2022-09-10T20:34:19.667Z,20.00
2022-09-10T20:36:48.721Z,20.00
2022-09-10T20:39:19.332Z,20.00
2022-09-10T20:41:48.460Z,20.00
2022-09-10T20:44:19.989Z,19.90
2022-09-10T20:46:48.144Z,19.90
2022-09-10T20:49:17.146Z,19.90
2022-09-10T20:51:45.897Z,19.80
2022-09-10T20:54:16.736Z,19.80
2022-09-10T20:56:45.627Z,19.80
2022-09-10T20:59:15.800Z,19.70
2022-09-10T21:01:47.058Z,19.70
2022-09-10T21:04:15.592Z,19.70
2022-09-10T21:06:43.692Z,19.60
2022-09-10T21:09:12.574Z,19.60
2022-09-10T21:11:40.869Z,19.60
2022-09-10T21:14:10.024Z,19.60
2022-09-10T21:16:39.967Z,19.50
2022-09-10T21:19:11.941Z,19.50
2022-09-10T21:21:40.871Z,19.50
2022-09-10T21:24:11.449Z,19.50
2022-09-10T21:26:41.901Z,19.50
2022-09-10T21:29:12.943Z,19.50
2022-09-10T21:31:41.352Z,19.40
2022-09-10T21:34:10.860Z,19.40
2022-09-10T21:36:41.142Z,19.40
2022-09-10T21:39:13.950Z,19.40
2022-09-10T21:41:44.076Z,19.40
2022-09-10T21:44:14.757Z,19.40
2022-09-10T21:46:43.517Z,19.30
2022-09-10T21:49:13.315Z,19.40
2022-09-10T21:51:42.359Z,19.40
2022-09-10T21:54:14.490Z,19.30
2022-09-10T21:56:42.592Z,19.30
2022-09-10T21:59:12.175Z,19.30
2022-09-10T22:01:42.038Z,19.20
2022-09-10T22:04:11.111Z,19.20
2022-09-10T22:06:40.952Z,19.20
2022-09-10T22:09:11.721Z,19.20
2022-09-10T22:11:41.892Z,19.10
2022-09-10T22:14:14.275Z,19.10
2022-09-10T22:16:42.376Z,19.10
2022-09-10T22:19:13.244Z,19.00
2022-09-10T22:21:42.708Z,18.90
2022-09-10T22:24:12.723Z,18.90
2022-09-10T22:26:42.656Z,18.90
2022-09-10T22:29:11.836Z,18.90
2022-09-10T22:31:40.091Z,18.80
2022-09-10T22:34:10.978Z,18.80
2022-09-10T22:36:41.497Z,18.80
2022-09-10T22:39:13.789Z,18.80
2022-09-10T22:41:42.396Z,18.80
2022-09-10T22:44:10.925Z,18.70
2022-09-10T22:46:40.455Z,18.70
2022-09-10T22:49:08.692Z,18.70
2022-09-10T22:51:38.460Z,18.70
2022-09-10T22:54:07.425Z,18.70
2022-09-10T22:56:37.187Z,18.70
2022-09-10T22:59:06.462Z,18.60
2022-09-10T23:01:38.132Z,18.60
2022-09-10T23:04:07.903Z,18.60
2022-09-10T23:06:38.569Z,18.50
2022-09-10T23:09:08.382Z,18.50
2022-09-10T23:11:39.156Z,18.50
2022-09-10T23:14:09.644Z,18.50
2022-09-10T23:16:40.073Z,18.50
2022-09-10T23:19:10.603Z,18.50
2022-09-10T23:21:42.695Z,18.50
2022-09-10T23:24:13.912Z,18.50
2022-09-10T23:26:44.289Z,18.40
2022-09-10T23:29:13.020Z,18.40
2022-09-10T23:31:41.954Z,18.30
2022-09-10T23:34:12.612Z,18.30
2022-09-10T23:36:43.455Z,18.20
2022-09-10T23:39:14.466Z,18.20
2022-09-10T23:41:44.172Z,18.20
2022-09-10T23:44:12.441Z,18.10
2022-09-10T23:46:40.962Z,18.10
2022-09-10T23:49:09.116Z,18.00
2022-09-10T23:51:37.365Z,18.00
2022-09-10T23:54:05.784Z,18.00
2022-09-10T23:56:33.922Z,18.00
2022-09-10T23:59:03.560Z,18.00
